Terminal Aerodrome Forecast
Issued by NWS

Current Version | Previous Version | Text Only | Print | Product List | Glossary On
Versions: 1 2 3 4 5 6 7 8 9 10 11 12
000
FTUS45 KRIW 192329
TAFRKS
TAF
KRKS 192329Z 2000/2024 25012KT P6SM VCSH BKN035
      TEMPO 2000/2002 3SM -SN BKN024
     FM200200 26011KT P6SM SCT025 BKN050
     FM201700 20011KT P6SM BKN080=

USA.gov is the U.S. government's official web portal to all federal, state and local government web resources and services.